Time;durP1;ratioP1;P1;durP2;ratioP2;P2;SDS_P1;SDS_P2;PMS_P1;PMS_P2;Temp;Humidity;BMP_temperature;BMP_pressure;BME280_temperature;BME280_humidity;BME280_pressure;Samples;Min_cycle;Max_cycle;Signal;HPM_P1;HPM_P2
2023/09/12 00:00:14;;;;;;;21.70;15.98;;;18.70;99.90;;;;;;7575175;19;19974;-70
2023/09/12 00:02:46;;;;;;;21.57;16.70;;;18.50;99.90;;;;;;7588430;19;20031;-72
2023/09/12 00:05:19;;;;;;;19.80;15.68;;;18.50;99.90;;;;;;7558953;19;20107;-70
2023/09/12 00:07:54;;;;;;;20.45;16.90;;;18.50;99.90;;;;;;7586129;19;20488;-71
2023/09/12 00:10:26;;;;;;;23.35;17.33;;;18.40;99.90;;;;;;7585943;19;20756;-71
2023/09/12 00:13:00;;;;;;;21.58;16.13;;;18.30;99.90;;;;;;7579885;19;20400;-70
2023/09/12 00:15:32;;;;;;;18.58;15.20;;;18.40;99.90;;;;;;7578161;19;20026;-71
2023/09/12 00:18:05;;;;;;;19.73;14.80;;;18.40;99.90;;;;;;7589598;19;20111;-71
2023/09/12 00:20:37;;;;;;;22.58;16.02;;;18.50;99.90;;;;;;7574439;19;20023;-70
2023/09/12 00:23:10;;;;;;;18.42;15.93;;;18.50;99.90;;;;;;7580674;19;20014;-70
2023/09/12 00:25:42;;;;;;;21.50;16.63;;;18.30;99.90;;;;;;7606382;19;20093;-72
2023/09/12 00:28:14;;;;;;;19.45;16.02;;;18.30;99.90;;;;;;7600474;19;20015;-70
2023/09/12 00:30:46;;;;;;;21.75;16.40;;;18.20;99.90;;;;;;7592842;19;20011;-73
2023/09/12 00:33:19;;;;;;;23.63;16.88;;;18.30;99.90;;;;;;7600542;19;20010;-72
2023/09/12 00:35:51;;;;;;;19.75;15.63;;;18.30;99.90;;;;;;7604300;19;20018;-71
2023/09/12 00:38:24;;;;;;;17.73;15.02;;;18.30;99.90;;;;;;7601094;19;20411;-71
2023/09/12 00:40:57;;;;;;;17.85;15.48;;;18.20;99.90;;;;;;7598792;19;20022;-71
2023/09/12 00:43:29;;;;;;;17.98;15.05;;;18.10;99.90;;;;;;7581528;19;20728;-71
2023/09/12 00:46:01;;;;;;;20.08;16.73;;;18.20;99.90;;;;;;7592237;19;20018;-71
2023/09/12 00:48:36;;;;;;;19.77;15.45;;;18.20;99.90;;;;;;7597940;19;20102;-70
2023/09/12 00:51:09;;;;;;;18.17;14.82;;;18.10;99.90;;;;;;7595612;19;20019;-71
2023/09/12 00:53:43;;;;;;;19.95;14.52;;;18.20;99.90;;;;;;7582243;19;20026;-71
2023/09/12 00:56:15;;;;;;;18.60;15.30;;;18.10;99.90;;;;;;7589527;19;20029;-71
2023/09/12 00:58:50;;;;;;;17.67;14.80;;;18.00;99.90;;;;;;7605418;19;20120;-71
2023/09/12 01:01:23;;;;;;;18.38;15.20;;;17.90;99.90;;;;;;7590445;19;20025;-70
2023/09/12 01:03:56;;;;;;;21.45;14.93;;;17.90;99.90;;;;;;7569881;19;20011;-71
2023/09/12 01:06:31;;;;;;;19.20;15.32;;;17.80;99.90;;;;;;7573944;19;20018;-71
2023/09/12 01:09:04;;;;;;;18.50;15.60;;;17.90;99.90;;;;;;7585194;19;21193;-72
2023/09/12 01:11:37;;;;;;;21.67;16.13;;;18.00;99.90;;;;;;7596411;19;20022;-72
2023/09/12 01:18:08;;;;;;;19.83;15.18;;;18.10;99.90;;;;;;7519319;19;20034;-72
2023/09/12 01:21:16;;;;;;;24.17;15.57;;;18.00;99.90;;;;;;7569676;19;21159;-70
2023/09/12 01:23:48;;;;;;;18.10;14.30;;;18.00;99.90;;;;;;7565399;19;21718;-70
2023/09/12 01:26:29;;;;;;;22.67;15.20;;;17.80;99.90;;;;;;7551568;19;20014;-70
2023/09/12 01:29:03;;;;;;;19.52;16.08;;;17.70;99.90;;;;;;7564310;19;20821;-71
2023/09/12 01:31:39;;;;;;;18.58;15.05;;;17.60;99.90;;;;;;7542290;19;20015;-70
2023/09/12 01:34:14;;;;;;;18.40;14.48;;;17.60;99.90;;;;;;7570358;19;20051;-70
2023/09/12 01:36:46;;;;;;;;;;;17.70;99.90;;;;;;7583105;19;20015;-70
2023/09/12 01:39:19;;;;;;;20.27;15.48;;;17.70;99.90;;;;;;7571587;19;19923;-70
2023/09/12 01:41:53;;;;;;;16.73;14.17;;;17.70;99.90;;;;;;7535926;19;20131;-71
2023/09/12 01:44:28;;;;;;;17.38;13.98;;;17.60;99.90;;;;;;7565841;19;20022;-72
2023/09/12 01:47:04;;;;;;;21.63;15.15;;;17.50;99.90;;;;;;7564493;19;21102;-71
2023/09/12 01:49:40;;;;;;;18.70;15.18;;;17.60;99.90;;;;;;7559641;19;20302;-71
2023/09/12 01:52:14;;;;;;;20.75;15.75;;;17.60;99.90;;;;;;7578922;19;20021;-70
2023/09/12 01:54:48;;;;;;;17.80;15.05;;;17.50;99.90;;;;;;7573438;19;20017;-70
2023/09/12 01:57:21;;;;;;;19.10;14.63;;;17.40;99.90;;;;;;7559282;19;20014;-71
2023/09/12 01:59:53;;;;;;;17.73;14.30;;;17.50;99.90;;;;;;7587381;19;20006;-70
2023/09/12 02:02:26;;;;;;;20.35;15.00;;;17.40;99.90;;;;;;7554580;19;20015;-70
2023/09/12 02:05:17;;;;;;;20.08;15.40;;;17.30;99.90;;;;;;7562773;19;20034;-70
2023/09/12 02:07:50;;;;;;;19.73;15.45;;;17.20;99.90;;;;;;7555611;19;20010;-70
2023/09/12 02:10:22;;;;;;;18.20;14.93;;;17.20;99.90;;;;;;7560776;19;20023;-71
2023/09/12 02:12:55;;;;;;;17.23;14.55;;;17.10;99.90;;;;;;7537822;19;20030;-70
2023/09/12 02:15:28;;;;;;;17.85;14.82;;;17.10;99.90;;;;;;7532223;19;20010;-70
2023/09/12 02:18:00;;;;;;;19.45;14.38;;;17.10;99.90;;;;;;7569238;19;20018;-70
2023/09/12 02:20:38;;;;;;;21.80;14.07;;;17.20;99.90;;;;;;7562323;19;20021;-72
2023/09/12 02:23:10;;;;;;;22.10;14.30;;;17.20;99.90;;;;;;7572250;19;20014;-71
2023/09/12 02:25:43;;;;;;;17.05;13.68;;;17.30;99.90;;;;;;7547463;19;20015;-73
2023/09/12 02:28:15;;;;;;;21.15;15.13;;;17.30;99.90;;;;;;7551517;19;20022;-72
2023/09/12 02:30:47;;;;;;;20.23;14.32;;;17.30;99.90;;;;;;7571006;19;20027;-71
2023/09/12 02:33:19;;;;;;;15.90;13.95;;;17.30;99.90;;;;;;7563396;19;20018;-70
2023/09/12 02:35:52;;;;;;;17.08;14.15;;;17.20;99.90;;;;;;7557432;19;20029;-70
2023/09/12 02:38:24;;;;;;;23.75;15.52;;;17.20;99.90;;;;;;7533908;19;20022;-71
2023/09/12 02:40:56;;;;;;;20.70;15.00;;;17.10;99.90;;;;;;7537300;19;21187;-70
2023/09/12 02:43:29;;;;;;;18.17;14.23;;;17.10;99.90;;;;;;7537580;19;20019;-70
2023/09/12 02:46:01;;;;;;;17.65;14.57;;;17.10;99.90;;;;;;7511841;19;20018;-70
2023/09/12 02:48:34;;;;;;;18.35;14.57;;;17.00;99.90;;;;;;7570533;19;20601;-70
2023/09/12 02:51:06;;;;;;;18.17;14.02;;;17.00;99.90;;;;;;7582963;19;20025;-70
2023/09/12 02:53:38;;;;;;;22.08;14.90;;;16.90;99.90;;;;;;7577909;19;20023;-69
2023/09/12 02:56:11;;;;;;;16.13;14.10;;;16.80;99.90;;;;;;7554670;19;20014;-70
2023/09/12 02:58:46;;;;;;;21.92;15.13;;;16.80;99.90;;;;;;7546550;19;20021;-70
2023/09/12 03:01:20;;;;;;;18.45;14.80;;;16.80;99.90;;;;;;7584899;19;20043;-70
2023/09/12 03:03:52;;;;;;;19.40;15.25;;;16.80;99.90;;;;;;7583086;19;20088;-71
2023/09/12 03:06:25;;;;;;;17.60;14.43;;;16.80;99.90;;;;;;7569013;19;20010;-69
2023/09/12 03:08:57;;;;;;;18.08;14.35;;;16.70;99.90;;;;;;7539073;19;22444;-70
2023/09/12 03:11:29;;;;;;;24.10;14.50;;;16.70;99.90;;;;;;7531234;19;20048;-71
2023/09/12 03:14:05;;;;;;;16.55;14.38;;;16.70;99.90;;;;;;7552959;19;20018;-71
2023/09/12 03:16:38;;;;;;;21.30;14.70;;;16.70;99.90;;;;;;7575448;19;20025;-70
2023/09/12 03:19:11;;;;;;;25.13;14.70;;;16.70;99.90;;;;;;7579616;19;20014;-72
2023/09/12 03:21:43;;;;;;;18.90;14.07;;;16.60;99.90;;;;;;7595434;19;20029;-70
2023/09/12 03:24:18;;;;;;;19.85;15.27;;;16.70;99.90;;;;;;7594496;19;20290;-73
2023/09/12 03:26:51;;;;;;;18.85;14.35;;;16.70;99.90;;;;;;7597461;19;20015;-70
2023/09/12 03:29:24;;;;;;;;;;;16.60;99.90;;;;;;7582438;19;20019;-71
2023/09/12 03:31:56;;;;;;;19.17;15.00;;;16.60;99.90;;;;;;7578081;19;19942;-70
2023/09/12 03:34:29;;;;;;;20.58;15.15;;;16.50;99.90;;;;;;7588320;19;20103;-71
2023/09/12 03:37:02;;;;;;;19.02;14.32;;;16.50;99.90;;;;;;7577835;19;20018;-71
2023/09/12 03:39:35;;;;;;;18.67;15.52;;;16.50;99.90;;;;;;7575632;19;20018;-70
2023/09/12 03:42:07;;;;;;;18.73;14.13;;;16.50;99.90;;;;;;7589591;19;20022;-71
2023/09/12 03:44:39;;;;;;;16.92;14.05;;;16.60;99.90;;;;;;7584697;19;20029;-71
2023/09/12 03:47:12;;;;;;;18.75;14.63;;;16.50;99.90;;;;;;7573906;19;20018;-70
2023/09/12 03:49:44;;;;;;;18.00;14.93;;;16.50;99.90;;;;;;7583409;19;20608;-71
2023/09/12 03:52:16;;;;;;;17.45;13.43;;;16.50;99.90;;;;;;7559131;19;20471;-73
2023/09/12 03:54:48;;;;;;;18.55;14.77;;;16.50;99.90;;;;;;7597489;19;20141;-72
2023/09/12 03:57:21;;;;;;;17.73;14.45;;;16.50;99.90;;;;;;7585500;19;20016;-72
2023/09/12 03:59:53;;;;;;;16.20;14.25;;;16.40;99.90;;;;;;7581758;19;20030;-72
2023/09/12 04:02:25;;;;;;;15.98;13.82;;;16.50;99.90;;;;;;7590810;19;20010;-71
2023/09/12 04:04:59;;;;;;;18.10;14.63;;;16.40;99.90;;;;;;7601609;19;20420;-70
2023/09/12 04:07:31;;;;;;;17.42;14.15;;;16.30;99.90;;;;;;7594634;19;20006;-72
2023/09/12 04:10:04;;;;;;;20.27;15.13;;;16.30;99.90;;;;;;7601568;19;20018;-72
2023/09/12 04:12:36;;;;;;;16.73;14.50;;;16.30;99.90;;;;;;7597404;19;20015;-73
2023/09/12 04:15:09;;;;;;;19.08;15.40;;;16.20;99.90;;;;;;7596169;19;20598;-73
2023/09/12 04:17:41;;;;;;;18.85;14.48;;;16.20;99.90;;;;;;7587546;19;20048;-72
2023/09/12 04:20:14;;;;;;;25.48;16.17;;;16.30;99.90;;;;;;7581950;19;21058;-72
2023/09/12 04:22:47;;;;;;;18.17;14.48;;;16.20;99.90;;;;;;7593910;19;20352;-73
2023/09/12 04:25:19;;;;;;;17.38;14.20;;;16.20;99.90;;;;;;7585824;19;20353;-70
2023/09/12 04:27:52;;;;;;;18.93;14.43;;;16.20;99.90;;;;;;7584864;19;20021;-71
2023/09/12 04:30:24;;;;;;;22.48;14.40;;;16.20;99.90;;;;;;7579425;19;20027;-70
2023/09/12 04:32:58;;;;;;;19.15;13.98;;;16.10;99.90;;;;;;7560026;19;20086;-71
2023/09/12 04:35:33;;;;;;;18.58;14.68;;;16.10;99.90;;;;;;7584607;19;20029;-71
2023/09/12 04:38:06;;;;;;;20.70;15.10;;;16.10;99.90;;;;;;7583978;19;20494;-70
2023/09/12 04:40:39;;;;;;;24.15;14.40;;;16.10;99.90;;;;;;7582384;19;20658;-71
2023/09/12 04:43:12;;;;;;;22.08;15.23;;;16.10;99.90;;;;;;7585905;19;20492;-71
2023/09/12 04:45:44;;;;;;;18.15;14.23;;;16.10;99.90;;;;;;7590979;19;20014;-72
2023/09/12 04:48:17;;;;;;;18.27;13.98;;;16.10;99.90;;;;;;7587192;19;20053;-72
2023/09/12 04:50:49;;;;;;;18.90;14.15;;;16.10;99.90;;;;;;7597249;19;20018;-72
2023/09/12 04:53:21;;;;;;;20.70;15.70;;;16.00;99.90;;;;;;7587950;19;20970;-72
2023/09/12 04:55:53;;;;;;;19.27;14.85;;;16.00;99.90;;;;;;7591542;19;20633;-72
2023/09/12 04:58:26;;;;;;;18.58;14.98;;;16.00;99.90;;;;;;7583499;19;20036;-72
2023/09/12 05:00:59;;;;;;;19.10;14.93;;;15.90;99.90;;;;;;7576023;19;20011;-72
2023/09/12 05:03:33;;;;;;;19.40;14.57;;;16.00;99.90;;;;;;7583571;19;20745;-71
2023/09/12 05:06:06;;;;;;;21.90;14.57;;;16.00;99.90;;;;;;7584260;19;20019;-72
2023/09/12 05:08:38;;;;;;;21.27;15.20;;;16.00;99.90;;;;;;7583682;19;20014;-72
2023/09/12 05:11:11;;;;;;;18.67;14.23;;;15.90;99.90;;;;;;7584158;19;20026;-72
2023/09/12 05:13:44;;;;;;;20.45;14.30;;;15.90;99.90;;;;;;7600310;19;20006;-72
2023/09/12 05:16:17;;;;;;;18.10;13.98;;;16.00;99.90;;;;;;7597217;19;20011;-72
2023/09/12 05:18:50;;;;;;;19.75;15.23;;;15.90;99.90;;;;;;7592286;19;20018;-71
2023/09/12 05:21:23;;;;;;;19.98;14.93;;;15.90;99.90;;;;;;7565980;19;20011;-72
2023/09/12 05:23:55;;;;;;;20.65;15.98;;;15.90;99.90;;;;;;7574341;19;20468;-72
2023/09/12 05:26:27;;;;;;;19.50;15.45;;;15.90;99.90;;;;;;7604129;19;20013;-71
2023/09/12 05:29:00;;;;;;;19.35;15.38;;;15.90;99.90;;;;;;7597053;19;20488;-72
2023/09/12 05:31:32;;;;;;;21.92;15.25;;;15.90;99.90;;;;;;7583568;19;20018;-71
2023/09/12 05:34:04;;;;;;;18.05;14.85;;;16.00;99.90;;;;;;7597137;19;20628;-72
2023/09/12 05:36:37;;;;;;;18.13;14.77;;;16.00;99.90;;;;;;7601418;19;20101;-72
2023/09/12 05:39:09;;;;;;;22.20;14.98;;;16.00;99.90;;;;;;7599656;19;20022;-72
2023/09/12 05:41:42;;;;;;;20.23;14.68;;;16.00;99.90;;;;;;7595376;19;20018;-71
2023/09/12 05:44:17;;;;;;;23.63;14.80;;;16.00;99.90;;;;;;7602170;19;20108;-72
2023/09/12 05:46:51;;;;;;;17.77;14.07;;;16.00;99.90;;;;;;7599685;19;20094;-71
2023/09/12 05:49:23;;;;;;;22.50;15.00;;;16.00;99.90;;;;;;7602071;19;20511;-72
2023/09/12 05:51:55;;;;;;;22.48;15.45;;;16.10;99.90;;;;;;7601086;19;20090;-71
2023/09/12 05:54:27;;;;;;;19.83;14.55;;;16.20;99.90;;;;;;7599274;19;20056;-72
2023/09/12 05:57:00;;;;;;;20.20;14.30;;;16.20;99.90;;;;;;7601848;19;20014;-72
2023/09/12 05:59:37;;;;;;;20.17;14.32;;;16.20;99.90;;;;;;7602373;19;20026;-72
2023/09/12 06:02:10;;;;;;;17.58;14.30;;;16.30;99.90;;;;;;7604619;19;20081;-72
2023/09/12 06:04:42;;;;;;;19.35;15.77;;;16.40;99.90;;;;;;7604517;19;20018;-72
2023/09/12 06:07:15;;;;;;;19.23;14.88;;;16.50;99.90;;;;;;7607385;19;20788;-72
2023/09/12 06:09:47;;;;;;;18.20;14.02;;;16.60;99.90;;;;;;7604616;19;20022;-71
2023/09/12 06:12:19;;;;;;;21.67;14.20;;;16.70;99.90;;;;;;7611217;19;20046;-71
2023/09/12 06:14:55;;;;;;;17.58;14.32;;;16.80;99.90;;;;;;7623734;19;20019;-71
2023/09/12 06:17:27;;;;;;;19.35;14.25;;;16.90;99.90;;;;;;7617727;19;20011;-70
2023/09/12 06:19:59;;;;;;;17.17;14.43;;;16.90;99.90;;;;;;7618600;19;20576;-71
2023/09/12 06:22:32;;;;;;;17.75;14.27;;;17.10;99.90;;;;;;7613639;19;20007;-70
2023/09/12 06:25:05;;;;;;;20.23;13.88;;;17.30;99.90;;;;;;7609923;19;20428;-71
2023/09/12 06:27:38;;;;;;;;;;;17.50;99.90;;;;;;7611921;19;20515;-71
2023/09/12 06:30:11;;;;;;;24.65;15.32;;;17.60;99.90;;;;;;7612461;19;19919;-72
2023/09/12 06:32:43;;;;;;;23.02;14.95;;;17.80;99.90;;;;;;7627165;19;20646;-70
2023/09/12 06:35:16;;;;;;;20.95;14.40;;;17.90;99.90;;;;;;7643447;19;20043;-71
2023/09/12 06:37:48;;;;;;;22.23;14.55;;;18.10;99.90;;;;;;7641571;19;20086;-71
2023/09/12 06:40:21;;;;;;;16.93;13.80;;;18.30;99.90;;;;;;7612847;19;20489;-71
2023/09/12 06:42:53;;;;;;;19.42;14.07;;;18.50;99.90;;;;;;7611426;19;20014;-72
2023/09/12 06:45:25;;;;;;;22.35;13.80;;;18.60;99.90;;;;;;7612052;19;20060;-72
2023/09/12 06:47:58;;;;;;;18.05;13.32;;;18.70;99.90;;;;;;7614397;19;20033;-72
2023/09/12 06:50:30;;;;;;;19.55;13.77;;;18.80;99.90;;;;;;7609115;19;20018;-72
2023/09/12 06:53:07;;;;;;;18.02;13.57;;;19.00;99.90;;;;;;7610659;19;20812;-71
2023/09/12 06:55:39;;;;;;;16.85;13.18;;;19.10;99.90;;;;;;7608755;19;20056;-71
2023/09/12 06:58:12;;;;;;;18.65;14.30;;;19.20;99.90;;;;;;7610368;19;20921;-71
2023/09/12 07:00:44;;;;;;;22.80;14.05;;;19.40;99.90;;;;;;7605624;19;20018;-72
2023/09/12 07:03:17;;;;;;;26.57;14.27;;;19.60;99.90;;;;;;7608638;19;20041;-71
2023/09/12 07:05:50;;;;;;;19.93;13.40;;;19.70;99.90;;;;;;7605936;19;20744;-72
2023/09/12 07:08:22;;;;;;;22.60;14.27;;;19.80;99.90;;;;;;7607747;19;20019;-72
2023/09/12 07:10:56;;;;;;;20.13;14.35;;;19.90;99.90;;;;;;7605447;19;20014;-72
2023/09/12 07:13:28;;;;;;;16.55;13.07;;;20.10;99.90;;;;;;7604820;19;20047;-72
2023/09/12 07:16:03;;;;;;;18.15;13.70;;;20.30;99.90;;;;;;7605885;19;20060;-72
2023/09/12 07:18:36;;;;;;;18.40;13.35;;;20.50;99.90;;;;;;7603608;19;20020;-71
2023/09/12 07:21:11;;;;;;;20.27;13.63;;;20.70;99.90;;;;;;7607471;19;20022;-72
2023/09/12 07:23:43;;;;;;;23.35;13.60;;;20.80;99.90;;;;;;7601841;19;20190;-71
2023/09/12 07:26:16;;;;;;;20.20;14.15;;;20.90;99.90;;;;;;7605384;19;20483;-71
2023/09/12 07:28:49;;;;;;;17.75;13.18;;;21.10;99.90;;;;;;7603559;19;20588;-71
2023/09/12 07:31:21;;;;;;;15.52;12.90;;;21.20;99.90;;;;;;7599159;19;20015;-71
2023/09/12 07:33:54;;;;;;;16.67;13.77;;;21.20;99.90;;;;;;7603097;19;20122;-71
2023/09/12 07:36:26;;;;;;;16.30;12.65;;;21.40;99.90;;;;;;7600371;19;21000;-72
2023/09/12 07:38:59;;;;;;;20.30;13.80;;;21.60;99.90;;;;;;7587370;19;20014;-71
2023/09/12 07:41:31;;;;;;;18.45;13.45;;;21.70;99.90;;;;;;7603404;19;20491;-71
2023/09/12 07:44:04;;;;;;;15.80;12.82;;;21.90;99.90;;;;;;7602592;19;20014;-70
2023/09/12 07:46:38;;;;;;;20.77;13.48;;;22.00;99.90;;;;;;7599034;19;20015;-71
2023/09/12 07:49:10;;;;;;;21.08;14.18;;;22.20;99.90;;;;;;7601621;19;20014;-71
2023/09/12 07:51:42;;;;;;;18.77;14.35;;;22.30;99.90;;;;;;7603234;19;20057;-71
2023/09/12 07:54:14;;;;;;;16.33;13.25;;;22.40;99.90;;;;;;7603278;19;20010;-71
2023/09/12 07:56:46;;;;;;;18.20;13.63;;;22.50;99.90;;;;;;7605072;19;20808;-71
2023/09/12 07:59:19;;;;;;;20.52;13.30;;;22.50;99.90;;;;;;7606211;19;20496;-71
2023/09/12 08:01:51;;;;;;;20.55;13.27;;;22.60;99.90;;;;;;7601019;19;20018;-70
2023/09/12 08:04:23;;;;;;;23.87;13.33;;;22.70;99.90;;;;;;7605344;19;20018;-71
2023/09/12 08:06:56;;;;;;;17.33;13.65;;;22.80;99.90;;;;;;7603868;19;20011;-71
2023/09/12 08:09:48;;;;;;;16.90;13.32;;;22.90;99.90;;;;;;7603927;19;20134;-71
2023/09/12 08:12:22;;;;;;;17.15;13.43;;;23.00;99.90;;;;;;7603542;19;20519;-71
2023/09/12 08:14:55;;;;;;;19.23;12.60;;;23.00;99.90;;;;;;7608098;19;20093;-71
2023/09/12 08:17:27;;;;;;;19.70;13.65;;;23.10;99.90;;;;;;7605933;19;20015;-70
2023/09/12 08:20:00;;;;;;;22.43;13.20;;;23.30;99.90;;;;;;7602578;19;20015;-70
2023/09/12 08:22:35;;;;;;;17.67;13.60;;;23.40;99.90;;;;;;7598657;19;20018;-70
2023/09/12 08:25:08;;;;;;;17.35;13.15;;;23.50;99.90;;;;;;7599913;19;20022;-71
2023/09/12 08:27:42;;;;;;;20.08;14.18;;;23.60;99.90;;;;;;7602832;19;21246;-71
2023/09/12 08:30:16;;;;;;;20.20;13.40;;;23.70;99.90;;;;;;7605037;19;20026;-71
2023/09/12 08:32:49;;;;;;;23.15;13.27;;;23.70;99.90;;;;;;7602175;19;20021;-70
2023/09/12 08:35:21;;;;;;;18.30;12.43;;;23.70;99.90;;;;;;7604448;19;20022;-71
2023/09/12 08:37:53;;;;;;;22.90;13.45;;;23.80;99.90;;;;;;7600097;19;20680;-70
2023/09/12 08:40:26;;;;;;;24.77;13.73;;;23.80;99.90;;;;;;7604056;19;20784;-71
2023/09/12 08:42:58;;;;;;;19.23;12.45;;;23.90;99.90;;;;;;7602940;19;20018;-71
2023/09/12 08:45:31;;;;;;;16.08;12.50;;;24.00;99.90;;;;;;7606594;19;21148;-70
2023/09/12 08:48:05;;;;;;;14.47;12.60;;;24.10;99.90;;;;;;7600524;19;20014;-70
2023/09/12 08:50:37;;;;;;;20.60;12.32;;;24.20;99.90;;;;;;7595945;19;20018;-70
2023/09/12 08:53:10;;;;;;;19.83;13.07;;;24.20;99.90;;;;;;7598338;19;20372;-71
2023/09/12 08:55:42;;;;;;;19.75;12.88;;;24.30;99.90;;;;;;7601212;19;20014;-71
2023/09/12 08:58:15;;;;;;;23.25;12.35;;;24.40;99.90;;;;;;7604074;19;20033;-70
2023/09/12 09:00:47;;;;;;;17.20;12.10;;;24.50;99.90;;;;;;7604268;19;20122;-71
2023/09/12 09:03:21;;;;;;;13.25;11.85;;;24.60;99.90;;;;;;7601338;19;20015;-70
2023/09/12 09:05:55;;;;;;;16.48;11.90;;;24.80;99.90;;;;;;7598452;19;20060;-72
2023/09/12 09:08:29;;;;;;;20.98;12.52;;;24.80;99.90;;;;;;7600901;19;20019;-70
2023/09/12 09:11:06;;;;;;;15.35;11.95;;;24.90;99.90;;;;;;7593290;19;20018;-71
2023/09/12 09:13:38;;;;;;;16.35;11.93;;;25.00;99.90;;;;;;7595683;19;20050;-70
2023/09/12 09:16:16;;;;;;;22.42;12.95;;;25.10;99.90;;;;;;7588172;19;20388;-70
2023/09/12 09:19:01;;;;;;;17.27;11.77;;;25.20;99.90;;;;;;7593582;19;20028;-70
2023/09/12 09:21:33;;;;;;;18.15;12.13;;;25.20;99.90;;;;;;7599189;19;20060;-70
2023/09/12 09:24:08;;;;;;;16.60;12.00;;;25.20;99.90;;;;;;7598848;19;20029;-70
2023/09/12 09:26:48;;;;;;;18.50;12.07;;;25.40;99.90;;;;;;7599124;19;20018;-72
2023/09/12 09:29:21;;;;;;;19.85;11.98;;;25.50;99.90;;;;;;7603188;19;20014;-71
2023/09/12 09:31:54;;;;;;;22.27;12.30;;;25.50;99.90;;;;;;7594262;19;20670;-71
2023/09/12 09:34:31;;;;;;;17.27;12.60;;;25.50;99.90;;;;;;7601516;19;21367;-70
2023/09/12 09:37:04;;;;;;;14.10;12.05;;;25.50;99.90;;;;;;7596053;19;20007;-70
2023/09/12 09:39:37;;;;;;;14.68;11.60;;;25.70;99.90;;;;;;7599214;19;20682;-71
2023/09/12 09:42:11;;;;;;;17.35;12.32;;;25.70;99.90;;;;;;7597087;19;20022;-71
2023/09/12 09:44:44;;;;;;;16.45;11.90;;;25.80;99.90;;;;;;7596802;19;20829;-70
2023/09/12 09:47:18;;;;;;;16.15;11.75;;;25.80;99.90;;;;;;7595570;19;20055;-72
2023/09/12 09:49:51;;;;;;;18.58;11.88;;;25.90;99.90;;;;;;7589699;19;20014;-70
2023/09/12 09:52:27;;;;;;;18.17;12.10;;;26.00;99.90;;;;;;7600988;19;20090;-71
2023/09/12 09:55:00;;;;;;;13.93;11.55;;;26.00;99.90;;;;;;7594789;19;20867;-70
2023/09/12 09:57:39;;;;;;;13.77;11.40;;;26.10;99.90;;;;;;7598441;19;20021;-70
2023/09/12 10:00:14;;;;;;;15.05;11.75;;;26.20;99.70;;;;;;7597437;19;20591;-70
2023/09/12 10:02:50;;;;;;;17.63;11.75;;;26.30;99.90;;;;;;7588517;19;20026;-71
2023/09/12 10:05:23;;;;;;;17.02;12.02;;;26.30;99.90;;;;;;7601099;19;20019;-70
2023/09/12 10:07:57;;;;;;;15.48;11.27;;;26.50;99.70;;;;;;7603919;19;22213;-71
2023/09/12 10:10:30;;;;;;;18.17;11.73;;;26.60;99.00;;;;;;7607004;19;20015;-71
2023/09/12 10:13:04;;;;;;;14.50;11.20;;;26.60;99.60;;;;;;7602958;19;20026;-71
2023/09/12 10:15:38;;;;;;;13.73;11.90;;;26.70;99.90;;;;;;7607740;19;20089;-70
2023/09/12 10:18:16;;;;;;;13.93;11.27;;;26.80;99.10;;;;;;7605610;19;20010;-71
2023/09/12 10:21:11;;;;;;;13.93;11.60;;;26.80;99.00;;;;;;7602840;19;20535;-70
2023/09/12 10:23:50;;;;;;;13.07;10.23;;;26.90;98.90;;;;;;7601972;19;20048;-70
2023/09/12 10:26:24;;;;;;;12.00;10.00;;;26.90;98.10;;;;;;7608752;19;20603;-71
2023/09/12 10:28:57;;;;;;;13.52;10.10;;;26.90;97.70;;;;;;7604696;19;20022;-70
2023/09/12 10:31:31;;;;;;;11.32;9.48;;;27.10;96.80;;;;;;7601344;19;21096;-71
2023/09/12 10:34:08;;;;;;;17.20;10.15;;;27.10;96.80;;;;;;7602031;19;20038;-71
2023/09/12 10:36:42;;;;;;;14.57;9.80;;;27.10;96.80;;;;;;7603870;19;20563;-70
2023/09/12 10:39:15;;;;;;;12.63;10.27;;;27.20;96.60;;;;;;7605342;19;20007;-71
2023/09/12 10:41:49;;;;;;;14.88;11.15;;;27.30;96.10;;;;;;7602271;19;20034;-71
2023/09/12 10:44:22;;;;;;;13.48;10.25;;;27.30;95.50;;;;;;7606762;19;20576;-71
2023/09/12 10:46:55;;;;;;;14.38;10.43;;;27.40;96.10;;;;;;7602717;19;20514;-71
2023/09/12 10:49:28;;;;;;;15.87;9.60;;;27.40;94.60;;;;;;7606848;19;20106;-71
2023/09/12 10:52:00;;;;;;;14.43;10.02;;;27.40;95.30;;;;;;7599038;19;20840;-71
2023/09/12 10:54:37;;;;;;;14.30;10.17;;;27.60;96.10;;;;;;7604689;19;20498;-69
2023/09/12 10:57:13;;;;;;;13.38;10.55;;;27.70;95.40;;;;;;7597548;19;20010;-71
2023/09/12 11:00:04;;;;;;;12.07;10.60;;;27.80;95.40;;;;;;7601562;19;21293;-70
2023/09/12 11:02:39;;;;;;;14.10;10.63;;;27.90;95.70;;;;;;7600457;19;20026;-71
2023/09/12 11:05:31;;;;;;;12.85;10.38;;;28.00;95.20;;;;;;7598180;19;20011;-70
2023/09/12 11:08:06;;;;;;;11.50;10.10;;;28.00;95.50;;;;;;7600287;19;21108;-71
2023/09/12 11:10:38;;;;;;;14.18;10.40;;;28.20;94.10;;;;;;7605201;19;20026;-70
2023/09/12 11:13:19;;;;;;;14.25;10.35;;;28.40;93.70;;;;;;7599341;19;20030;-70
2023/09/12 11:16:13;;;;;;;14.57;10.20;;;28.40;93.80;;;;;;7599636;19;20480;-70
2023/09/12 11:19:04;;;;;;;;;;;28.50;92.80;;;;;;7596214;19;20018;-70
2023/09/12 11:21:37;;;;;;;10.75;9.55;;;28.50;93.20;;;;;;7581710;19;19956;-70
2023/09/12 11:24:10;;;;;;;14.80;10.65;;;28.60;92.10;;;;;;7593197;19;20042;-71
2023/09/12 11:26:54;;;;;;;11.30;10.07;;;28.90;92.80;;;;;;7592647;19;20022;-71
2023/09/12 11:29:38;;;;;;;14.02;9.52;;;29.10;92.50;;;;;;7594834;19;20015;-71
2023/09/12 11:32:24;;;;;;;15.98;9.35;;;29.30;91.30;;;;;;7576819;19;20014;-71
2023/09/12 11:34:57;;;;;;;15.27;9.57;;;29.50;88.30;;;;;;7583292;19;20599;-70
2023/09/12 11:37:29;;;;;;;11.27;9.93;;;29.40;88.80;;;;;;7575845;19;20041;-71
2023/09/12 11:40:22;;;;;;;12.10;9.25;;;29.40;90.70;;;;;;7571730;19;20030;-72
2023/09/12 11:42:55;;;;;;;11.00;9.75;;;29.40;87.30;;;;;;7590548;19;20372;-71
2023/09/12 11:45:29;;;;;;;16.25;9.88;;;29.10;87.40;;;;;;7596511;19;21002;-71
2023/09/12 11:48:03;;;;;;;11.80;9.73;;;29.00;91.00;;;;;;7584817;19;20019;-71
2023/09/12 11:50:37;;;;;;;;;;;28.90;88.70;;;;;;7588325;19;20025;-71
2023/09/12 11:53:10;;;;;;;11.45;9.98;;;28.80;90.40;;;;;;7586306;19;19919;-71
2023/09/12 11:55:44;;;;;;;13.77;9.70;;;28.80;90.20;;;;;;7588182;19;20014;-72
2023/09/12 11:58:17;;;;;;;14.23;9.73;;;28.80;89.30;;;;;;7571143;19;20931;-72
2023/09/12 12:00:54;;;;;;;11.38;9.00;;;28.80;88.30;;;;;;7584276;19;20030;-72
2023/09/12 12:03:28;;;;;;;11.30;9.38;;;28.80;89.60;;;;;;7581756;19;20014;-71
2023/09/12 12:06:00;;;;;;;12.93;9.60;;;29.00;92.20;;;;;;7573321;19;20015;-71
2023/09/12 12:08:33;;;;;;;10.43;9.27;;;29.40;91.20;;;;;;7588245;19;20534;-71
2023/09/12 12:11:06;;;;;;;11.25;8.73;;;30.00;91.10;;;;;;7579589;19;20014;-72
2023/09/12 12:13:39;;;;;;;10.48;8.93;;;30.60;88.80;;;;;;7584157;19;20093;-71
2023/09/12 12:16:17;;;;;;;12.13;8.93;;;31.00;88.70;;;;;;7580382;19;20018;-72
2023/09/12 12:18:54;;;;;;;12.43;9.07;;;31.50;83.80;;;;;;7584716;19;20018;-72
2023/09/12 12:21:27;;;;;;;12.95;9.35;;;31.60;81.10;;;;;;7564476;19;20026;-71
2023/09/12 12:24:04;;;;;;;12.65;8.68;;;31.80;76.00;;;;;;7580355;19;20022;-71
2023/09/12 12:26:36;;;;;;;9.73;8.73;;;31.70;75.10;;;;;;7579758;19;20023;-72
2023/09/12 12:29:10;;;;;;;9.80;8.52;;;31.90;80.20;;;;;;7575483;19;20019;-72
2023/09/12 12:31:42;;;;;;;11.02;8.85;;;32.30;71.80;;;;;;7579333;19;20097;-71
2023/09/12 12:34:15;;;;;;;;;;;32.30;71.80;;;;;;7581016;19;20021;-73
2023/09/12 12:37:07;;;;;;;11.30;9.77;;;31.90;72.50;;;;;;7560612;19;21510;-71
2023/09/12 12:39:43;;;;;;;12.50;9.98;;;32.00;78.90;;;;;;7546707;19;20044;-72
2023/09/12 12:42:17;;;;;;;11.07;9.15;;;32.20;79.00;;;;;;7552510;19;21110;-73
2023/09/12 12:44:54;;;;;;;11.13;9.80;;;32.60;78.00;;;;;;7551898;19;20052;-71
2023/09/12 12:47:26;;;;;;;12.30;10.10;;;32.70;74.00;;;;;;7590021;19;20033;-73
2023/09/12 12:49:59;;;;;;;;;;;32.90;75.70;;;;;;7567909;19;20014;-72
2023/09/12 12:52:34;;;;;;;11.15;9.07;;;33.30;75.50;;;;;;7550946;19;19930;-72
2023/09/12 12:55:09;;;;;;;11.68;9.05;;;33.30;74.90;;;;;;7578777;19;20010;-72
2023/09/12 12:57:43;;;;;;;9.70;8.70;;;34.00;72.70;;;;;;7575565;19;20042;-72
2023/09/12 13:00:18;;;;;;;15.77;9.57;;;34.20;68.70;;;;;;7545053;19;20078;-71
2023/09/12 13:02:51;;;;;;;10.63;9.07;;;34.30;69.60;;;;;;7551620;19;20029;-72
2023/09/12 13:05:28;;;;;;;11.68;9.25;;;34.10;70.20;;;;;;7550306;19;20015;-72
2023/09/12 13:08:00;;;;;;;11.80;9.13;;;34.60;69.20;;;;;;7570198;19;20018;-72